createdAt,value
2022-08-23T00:01:24.248Z,100554.28
2022-08-23T00:03:53.486Z,100575.53
2022-08-23T00:06:22.157Z,100580.38
2022-08-23T00:08:50.734Z,100583.56
2022-08-23T00:11:32.942Z,100562.97
2022-08-23T00:14:08.485Z,100572.78
2022-08-23T00:16:35.740Z,100569.72
2022-08-23T00:19:07.482Z,100571.72
2022-08-23T00:21:36.501Z,100548.06
2022-08-23T00:24:05.286Z,100565.09
2022-08-23T00:26:51.854Z,100562.88
2022-08-23T00:29:19.008Z,100579.50
2022-08-23T00:31:45.780Z,100569.06
2022-08-23T00:34:13.228Z,100577.91
2022-08-23T00:36:40.423Z,100555.56
2022-08-23T00:39:07.611Z,100575.19
2022-08-23T00:41:35.407Z,100577.72
2022-08-23T00:44:21.550Z,100556.91
2022-08-23T00:47:10.681Z,100561.38
2022-08-23T00:49:39.796Z,100575.44
2022-08-23T00:52:15.014Z,100536.53
2022-08-23T00:54:43.103Z,100560.78
2022-08-23T00:57:13.477Z,100571.31
2022-08-23T00:59:40.620Z,100502.25
2022-08-23T01:02:08.647Z,100557.88
2022-08-23T01:04:41.685Z,100563.28
2022-08-23T01:07:18.241Z,100548.97
2022-08-23T01:09:47.620Z,100555.22
2022-08-23T01:12:33.112Z,100566.69
2022-08-23T01:15:07.374Z,100567.25
2022-08-23T01:18:05.937Z,100569.00
2022-08-23T01:20:42.509Z,100508.09
2022-08-23T01:23:21.258Z,100556.13
2022-08-23T01:25:48.194Z,100555.75
2022-08-23T01:28:14.873Z,100563.66
2022-08-23T01:30:43.591Z,100555.81
2022-08-23T01:33:10.570Z,100563.88
2022-08-23T01:35:41.299Z,100572.44
2022-08-23T01:38:09.158Z,100551.75
2022-08-23T01:40:37.194Z,100546.78
2022-08-23T01:43:04.822Z,100532.94
2022-08-23T01:45:32.416Z,100518.72
2022-08-23T01:48:00.337Z,100560.13
2022-08-23T01:50:28.169Z,100563.75
2022-08-23T01:52:55.137Z,100552.00
2022-08-23T01:55:22.078Z,100550.50
2022-08-23T01:57:52.972Z,100555.69
2022-08-23T02:00:23.468Z,100559.47
2022-08-23T02:02:50.180Z,100557.50
2022-08-23T02:05:18.783Z,100557.97
2022-08-23T02:07:46.810Z,100564.00
2022-08-23T02:10:13.538Z,100562.16
2022-08-23T02:12:40.397Z,100560.13
2022-08-23T02:15:07.854Z,100589.00
2022-08-23T02:17:34.956Z,100558.69
2022-08-23T02:20:03.129Z,100598.19
2022-08-23T02:22:29.994Z,100589.59
2022-08-23T02:24:56.843Z,100575.41
2022-08-23T02:27:23.836Z,100570.81
2022-08-23T02:29:52.122Z,100625.59
2022-08-23T02:32:20.051Z,100613.44
2022-08-23T02:34:55.694Z,100584.91
2022-08-23T02:37:32.086Z,100598.03
2022-08-23T02:39:58.706Z,100567.44
2022-08-23T02:42:25.431Z,100588.53
2022-08-23T02:44:52.079Z,100623.03
2022-08-23T02:47:18.933Z,100608.41
2022-08-23T02:49:46.183Z,100621.19
2022-08-23T02:52:12.886Z,100619.94
2022-08-23T02:54:39.554Z,100623.91
2022-08-23T02:57:06.467Z,100605.78
2022-08-23T02:59:33.212Z,100628.97
2022-08-23T03:01:59.983Z,100565.88
2022-08-23T03:04:27.000Z,100636.13
2022-08-23T03:06:53.938Z,100632.97
2022-08-23T03:09:20.478Z,100652.09
2022-08-23T03:11:49.669Z,100640.78
2022-08-23T03:14:16.955Z,100640.47
2022-08-23T03:16:44.416Z,100624.44
2022-08-23T03:19:11.171Z,100640.06
2022-08-23T03:21:38.487Z,100640.81
2022-08-23T03:24:10.269Z,100616.78
2022-08-23T03:26:37.395Z,100617.88
2022-08-23T03:29:04.446Z,100641.97
2022-08-23T03:31:31.298Z,100634.47
2022-08-23T03:33:58.642Z,100620.16
2022-08-23T03:36:28.007Z,100615.38
2022-08-23T03:38:55.627Z,100641.16
2022-08-23T03:41:22.594Z,100650.31
2022-08-23T03:43:50.609Z,100651.78
2022-08-23T03:46:23.697Z,100629.56
2022-08-23T03:48:56.128Z,100644.88
2022-08-23T03:51:24.120Z,100628.63
2022-08-23T03:53:51.214Z,100650.50
2022-08-23T03:56:25.683Z,100659.41
2022-08-23T03:58:53.162Z,100646.16
2022-08-23T04:01:20.219Z,100637.91
2022-08-23T04:03:48.439Z,100597.28
2022-08-23T04:06:16.402Z,100654.16
2022-08-23T04:08:43.763Z,100670.41
2022-08-23T04:11:12.215Z,100620.94
2022-08-23T04:13:42.995Z,100621.41
2022-08-23T04:16:09.953Z,100670.63
2022-08-23T04:18:36.639Z,100676.38
2022-08-23T04:21:07.703Z,100681.06
2022-08-23T04:23:34.304Z,100664.94
2022-08-23T04:26:01.830Z,100647.09
2022-08-23T04:28:29.639Z,100655.06
2022-08-23T04:30:56.596Z,100666.22
2022-08-23T04:33:23.682Z,100656.63
2022-08-23T04:35:50.499Z,100687.91
2022-08-23T04:38:24.140Z,100695.56
2022-08-23T04:41:11.546Z,100698.91
2022-08-23T04:43:39.162Z,100695.09
2022-08-23T04:46:05.822Z,100681.66
2022-08-23T04:48:32.733Z,100694.09
2022-08-23T04:50:59.378Z,100675.41
2022-08-23T04:53:26.195Z,100696.19
2022-08-23T04:55:52.819Z,100700.81
2022-08-23T04:58:19.551Z,100695.56
2022-08-23T05:00:51.618Z,100704.38
2022-08-23T05:03:18.612Z,100694.69
2022-08-23T05:05:45.718Z,100700.41
2022-08-23T05:08:12.343Z,100681.00
2022-08-23T05:10:38.962Z,100714.38
2022-08-23T05:13:05.590Z,100680.38
2022-08-23T05:15:32.242Z,100617.28
2022-08-23T05:17:58.805Z,100698.84
2022-08-23T05:20:26.161Z,100707.81
2022-08-23T05:22:52.754Z,100698.28
2022-08-23T05:25:19.651Z,100700.50
2022-08-23T05:27:46.958Z,100717.97
2022-08-23T05:30:15.192Z,100703.97
2022-08-23T05:32:42.136Z,100714.38
2022-08-23T05:35:09.274Z,100580.25
2022-08-23T05:37:35.923Z,100696.44
2022-08-23T05:40:03.181Z,100717.13
2022-08-23T05:42:29.883Z,100693.22
2022-08-23T05:44:57.282Z,100664.75
2022-08-23T05:47:27.111Z,100714.44
2022-08-23T05:49:53.748Z,100688.72
2022-08-23T05:52:20.711Z,100707.59
2022-08-23T05:54:47.470Z,100720.19
2022-08-23T05:57:14.143Z,100713.28
2022-08-23T05:59:41.927Z,100733.50
2022-08-23T06:02:09.628Z,100695.63
2022-08-23T06:04:36.307Z,100728.06
2022-08-23T06:07:02.991Z,100717.22
2022-08-23T06:09:29.729Z,100731.56
2022-08-23T06:11:56.372Z,100733.16
2022-08-23T06:14:23.684Z,100710.91
2022-08-23T06:16:55.602Z,100740.50
2022-08-23T06:19:23.820Z,100730.47
2022-08-23T06:21:51.378Z,100730.84
2022-08-23T06:24:18.251Z,100731.16
2022-08-23T06:26:45.430Z,100729.34
2022-08-23T06:29:15.738Z,100732.81
2022-08-23T06:31:48.732Z,100741.44
2022-08-23T06:34:37.091Z,100743.88
2022-08-23T06:37:10.306Z,100744.09
2022-08-23T06:39:38.335Z,100740.31
2022-08-23T06:42:34.410Z,100744.44
2022-08-23T06:44:55.775Z,100738.19
2022-08-23T06:47:23.163Z,100743.19
2022-08-23T06:49:51.081Z,100765.13
2022-08-23T06:52:25.783Z,100739.09
2022-08-23T06:54:52.567Z,100770.09
2022-08-23T06:57:20.392Z,100749.97
2022-08-23T06:59:49.191Z,100767.88
2022-08-23T07:02:16.170Z,100762.91
2022-08-23T07:04:43.008Z,100787.34
2022-08-23T07:07:11.944Z,100779.03
2022-08-23T07:09:40.849Z,100778.56
2022-08-23T07:12:07.832Z,100706.66
2022-08-23T07:14:34.555Z,100728.75
2022-08-23T07:17:03.704Z,100746.13
2022-08-23T07:19:34.099Z,100794.94
2022-08-23T07:22:01.992Z,100807.25
2022-08-23T07:24:33.380Z,100786.50
2022-08-23T07:27:03.924Z,100776.84
2022-08-23T07:29:30.524Z,100807.69
2022-08-23T07:31:58.035Z,100817.13
2022-08-23T07:34:26.198Z,100802.13
2022-08-23T07:36:54.381Z,100817.03
2022-08-23T07:39:23.692Z,100820.44
2022-08-23T07:41:52.679Z,100815.75
2022-08-23T07:44:19.941Z,100753.16
2022-08-23T07:46:53.174Z,100826.25
2022-08-23T07:49:19.877Z,100832.91
2022-08-23T07:51:50.476Z,100809.69
2022-08-23T07:54:19.085Z,100824.19
2022-08-23T07:56:46.416Z,100830.31
2022-08-23T07:59:13.824Z,100817.53
2022-08-23T08:01:43.689Z,100749.00
2022-08-23T08:04:10.863Z,100808.03
2022-08-23T08:06:59.927Z,100832.19
2022-08-23T08:09:34.717Z,100837.19
2022-08-23T08:12:01.747Z,100848.31
2022-08-23T08:14:28.458Z,100849.88
2022-08-23T08:16:56.317Z,100846.56
2022-08-23T08:19:23.247Z,100816.34
2022-08-23T08:21:51.319Z,100835.66
2022-08-23T08:24:19.407Z,100854.69
2022-08-23T08:26:46.667Z,100864.66
2022-08-23T08:29:14.403Z,100864.56
2022-08-23T08:31:44.496Z,100864.69
2022-08-23T08:34:12.081Z,100869.44
2022-08-23T08:36:42.619Z,100851.88
2022-08-23T08:39:15.102Z,100863.72
2022-08-23T08:42:09.584Z,100874.84
2022-08-23T08:44:47.532Z,100868.66
2022-08-23T08:47:19.502Z,100743.94
2022-08-23T08:50:05.480Z,100877.19
2022-08-23T08:52:47.316Z,100838.31
2022-08-23T08:55:20.713Z,100851.03
2022-08-23T08:57:52.164Z,100866.66
2022-08-23T09:00:32.687Z,100812.78
2022-08-23T09:03:04.364Z,100802.38
2022-08-23T09:05:34.378Z,100883.22
2022-08-23T09:08:35.248Z,100864.38
2022-08-23T09:11:23.424Z,100873.72
2022-08-23T09:13:53.868Z,100871.44
2022-08-23T09:16:32.739Z,100878.97
2022-08-23T09:19:02.378Z,100876.75
2022-08-23T09:21:40.775Z,100875.34
2022-08-23T09:24:07.485Z,100851.06
2022-08-23T09:26:34.082Z,100882.47
2022-08-23T09:29:32.174Z,100862.97
2022-08-23T09:32:04.278Z,100874.56
2022-08-23T09:34:30.808Z,100872.09
2022-08-23T09:37:24.737Z,100885.72
2022-08-23T09:40:12.972Z,100881.47
2022-08-23T09:42:41.225Z,100884.44
2022-08-23T09:45:51.155Z,100891.13
2022-08-23T09:48:44.783Z,100855.75
2022-08-23T09:51:25.263Z,100846.69
2022-08-23T09:54:07.711Z,100871.03
2022-08-23T09:56:38.749Z,100887.66
2022-08-23T09:59:40.546Z,100869.09
2022-08-23T10:02:15.728Z,100892.41
2022-08-23T10:04:47.364Z,100891.53
2022-08-23T10:07:42.582Z,100895.50
2022-08-23T10:10:30.460Z,100897.75
2022-08-23T10:12:59.117Z,100891.81
2022-08-23T10:15:45.333Z,100870.97
2022-08-23T10:18:26.691Z,100894.28
2022-08-23T10:21:21.074Z,100831.47
2022-08-23T10:24:09.212Z,100801.31
2022-08-23T10:26:45.287Z,100845.91
2022-08-23T10:29:37.326Z,100880.03
2022-08-23T10:32:24.351Z,100845.72
2022-08-23T10:35:15.856Z,100903.03
2022-08-23T10:38:06.643Z,100877.22
2022-08-23T10:40:36.171Z,100883.56
2022-08-23T10:43:26.228Z,100890.22
2022-08-23T10:46:00.197Z,100885.56
2022-08-23T10:48:54.533Z,100891.63
2022-08-23T10:51:31.749Z,100894.06
2022-08-23T10:54:00.637Z,100889.09
2022-08-23T10:56:28.803Z,100897.59
2022-08-23T10:59:00.547Z,100895.69
2022-08-23T11:01:55.258Z,100875.09
2022-08-23T11:04:47.253Z,100878.91
2022-08-23T11:07:34.370Z,100885.75
2022-08-23T11:10:25.116Z,100875.00
2022-08-23T11:13:01.678Z,100874.28
2022-08-23T11:15:39.446Z,100870.94
2022-08-23T11:18:34.543Z,100827.50
2022-08-23T11:21:19.484Z,100791.69
2022-08-23T11:23:49.343Z,100894.19
2022-08-23T11:26:22.438Z,100880.91
2022-08-23T11:28:52.069Z,100872.63
2022-08-23T11:31:34.818Z,100859.00
2022-08-23T11:34:05.741Z,100762.81
2022-08-23T11:36:33.426Z,100887.97
2022-08-23T11:39:06.939Z,100869.00
2022-08-23T11:41:56.134Z,100888.53
2022-08-23T11:44:27.722Z,100881.78
2022-08-23T11:46:55.366Z,100883.03
2022-08-23T11:49:57.460Z,100843.69
2022-08-23T11:52:30.155Z,100892.78
2022-08-23T11:55:15.102Z,100828.56
2022-08-23T11:57:57.056Z,100887.59
2022-08-23T12:00:34.262Z,100890.03
2022-08-23T12:03:05.456Z,100880.47
2022-08-23T12:05:35.179Z,100831.22
2022-08-23T12:08:02.627Z,100879.38
2022-08-23T12:10:41.661Z,100840.78
2022-08-23T12:13:20.605Z,100888.25
2022-08-23T12:16:16.520Z,100883.75
2022-08-23T12:18:53.433Z,100874.38
2022-08-23T12:21:52.070Z,100890.94
2022-08-23T12:24:32.735Z,100866.44
2022-08-23T12:26:59.246Z,100884.38
2022-08-23T12:29:50.927Z,100874.13
2022-08-23T12:32:31.392Z,100740.31
2022-08-23T12:35:16.308Z,100865.44
2022-08-23T12:38:06.127Z,100879.91
2022-08-23T12:40:43.206Z,100861.59
2022-08-23T12:43:28.651Z,100868.91
2022-08-23T12:45:58.384Z,100878.81
2022-08-23T12:48:29.210Z,100851.50
2022-08-23T12:51:17.258Z,100880.28
2022-08-23T12:53:45.811Z,100844.38
2022-08-23T12:56:22.879Z,100884.94
2022-08-23T12:59:05.022Z,100792.38
2022-08-23T13:01:36.652Z,100851.50
2022-08-23T13:04:11.487Z,100873.91
2022-08-23T13:06:52.997Z,100853.13
2022-08-23T13:09:27.200Z,100852.50
2022-08-23T13:11:56.022Z,100859.72
2022-08-23T13:14:34.059Z,100869.81
2022-08-23T13:17:31.673Z,100838.47
2022-08-23T13:20:01.359Z,100860.81
2022-08-23T13:22:31.175Z,100878.75
2022-08-23T13:25:32.157Z,100848.09
2022-08-23T13:28:05.406Z,100855.16
2022-08-23T13:30:36.930Z,100875.34
2022-08-23T13:33:10.705Z,100862.25
2022-08-23T13:35:47.208Z,100855.06
2022-08-23T13:38:32.285Z,100837.13
2022-08-23T13:41:10.549Z,100860.06
2022-08-23T13:43:51.107Z,100854.66
2022-08-23T13:46:29.848Z,100857.28
2022-08-23T13:49:10.458Z,100806.09
2022-08-23T13:51:40.065Z,100825.06
2022-08-23T13:54:09.805Z,100821.00
2022-08-23T13:56:50.159Z,100861.63
2022-08-23T13:59:31.132Z,100866.13
2022-08-23T14:02:05.632Z,100828.03
2022-08-23T14:04:33.069Z,100819.03
2022-08-23T14:06:59.779Z,100852.53
2022-08-23T14:09:26.525Z,100871.22
2022-08-23T14:11:57.850Z,100861.06
2022-08-23T14:14:31.331Z,100857.28
2022-08-23T14:17:02.455Z,100846.00
2022-08-23T14:22:18.783Z,100860.56
2022-08-23T14:24:45.658Z,100859.16
2022-08-23T14:27:12.728Z,100826.22
2022-08-23T14:29:39.399Z,100858.06
2022-08-23T14:32:06.522Z,100843.50
2022-08-23T14:34:33.184Z,100836.66
2022-08-23T14:39:46.590Z,100815.22
2022-08-23T14:42:17.141Z,100830.63
2022-08-23T14:44:43.768Z,100864.69
2022-08-23T14:47:10.512Z,100789.69
2022-08-23T14:49:37.055Z,100864.13
2022-08-23T14:52:04.197Z,100872.34
2022-08-23T14:54:31.247Z,100869.63
2022-08-23T14:56:58.076Z,100825.63
2022-08-23T14:59:24.845Z,100875.63
2022-08-23T15:01:53.515Z,100857.47
2022-08-23T15:04:23.235Z,100818.91
2022-08-23T15:07:16.020Z,100834.91
2022-08-23T15:09:38.394Z,100860.75
2022-08-23T15:14:57.176Z,100846.72
2022-08-23T15:17:28.755Z,100855.75
2022-08-23T15:19:57.792Z,100867.84
2022-08-23T15:22:24.469Z,100816.69
2022-08-23T15:24:52.652Z,100839.28
2022-08-23T15:27:19.905Z,100858.81
2022-08-23T15:29:46.542Z,100857.34
2022-08-23T15:32:13.240Z,100848.00
2022-08-23T15:34:45.612Z,100841.16
2022-08-23T15:37:14.293Z,100806.25
2022-08-23T15:39:42.176Z,100789.72
2022-08-23T15:42:08.970Z,100868.34
2022-08-23T15:44:35.481Z,100810.03
2022-08-23T15:47:04.791Z,100865.53
2022-08-23T15:49:36.206Z,100865.00
2022-08-23T15:52:04.076Z,100801.75
2022-08-23T15:54:30.699Z,100807.25
2022-08-23T15:56:57.924Z,100839.09
2022-08-23T15:59:25.097Z,100868.72
2022-08-23T16:01:51.847Z,100862.28
2022-08-23T16:04:18.656Z,100862.47
2022-08-23T16:06:45.702Z,100853.94
2022-08-23T16:09:20.865Z,100802.53
2022-08-23T16:11:48.501Z,100866.81
2022-08-23T16:14:15.694Z,100805.72
2022-08-23T16:16:46.523Z,100858.22
2022-08-23T16:19:14.286Z,100860.31
2022-08-23T16:21:43.576Z,100837.34
2022-08-23T16:24:10.339Z,100854.41
2022-08-23T16:26:39.374Z,100861.00
2022-08-23T16:29:10.444Z,100835.34
2022-08-23T16:31:39.905Z,100852.69
2022-08-23T16:34:12.747Z,100656.75
2022-08-23T16:36:41.951Z,100794.31
2022-08-23T16:39:11.644Z,100809.47
2022-08-23T16:41:38.593Z,100871.22
2022-08-23T16:44:05.818Z,100869.28
2022-08-23T16:46:32.594Z,100875.53
2022-08-23T16:48:59.207Z,100866.44
2022-08-23T16:51:26.167Z,100859.31
2022-08-23T16:54:01.653Z,100874.31
2022-08-23T16:56:31.123Z,100850.28
2022-08-23T16:58:58.360Z,100787.25
2022-08-23T17:01:25.137Z,100858.00
2022-08-23T17:03:52.003Z,100872.38
2022-08-23T17:06:18.995Z,100854.16
2022-08-23T17:08:45.710Z,100880.34
2022-08-23T17:11:18.243Z,100818.94
2022-08-23T17:13:45.098Z,100849.25
2022-08-23T17:16:11.831Z,100866.09
2022-08-23T17:18:39.055Z,100880.03
2022-08-23T17:21:05.938Z,100883.28
2022-08-23T17:23:37.715Z,100882.41
2022-08-23T17:26:07.539Z,100875.59
2022-08-23T17:28:34.160Z,100890.22
2022-08-23T17:31:01.442Z,100851.09
2022-08-23T17:33:28.051Z,100899.09
2022-08-23T17:35:54.661Z,100808.06
2022-08-23T17:38:21.317Z,100895.22
2022-08-23T17:40:48.146Z,100905.22
2022-08-23T17:43:14.883Z,100903.78
2022-08-23T17:45:45.182Z,100903.50
2022-08-23T17:48:13.035Z,100893.19
2022-08-23T17:50:40.219Z,100904.31
2022-08-23T17:53:07.073Z,100924.00
2022-08-23T17:55:35.280Z,100894.59
2022-08-23T17:58:03.856Z,100905.53
2022-08-23T18:00:33.024Z,100902.13
2022-08-23T18:02:59.881Z,100926.78
2022-08-23T18:05:27.619Z,100899.84
2022-08-23T18:07:54.265Z,100936.09
2022-08-23T18:10:21.811Z,100842.19
2022-08-23T18:12:48.425Z,100937.59
2022-08-23T18:15:15.188Z,100932.00
2022-08-23T18:17:41.882Z,100930.25
2022-08-23T18:20:11.225Z,100727.75
2022-08-23T18:22:38.923Z,100927.84
2022-08-23T18:25:08.941Z,100900.72
2022-08-23T18:27:54.807Z,100952.19
2022-08-23T18:30:21.802Z,100961.31
2022-08-23T18:32:48.484Z,100954.00
2022-08-23T18:35:15.385Z,100845.94
2022-08-23T18:37:42.284Z,100963.31
2022-08-23T18:40:10.436Z,100973.66
2022-08-23T18:42:37.435Z,100945.66
2022-08-23T18:45:05.970Z,100971.91
2022-08-23T18:47:34.687Z,100976.47
2022-08-23T18:50:01.397Z,100914.03
2022-08-23T18:52:30.247Z,100989.31
2022-08-23T18:54:58.221Z,100991.53
2022-08-23T18:57:24.965Z,100959.91
2022-08-23T18:59:51.751Z,101002.31
2022-08-23T19:02:18.489Z,101000.69
2022-08-23T19:04:46.077Z,100983.81
2022-08-23T19:07:12.897Z,101008.34
2022-08-23T19:09:39.759Z,100903.28
2022-08-23T19:12:06.775Z,101010.09
2022-08-23T19:14:35.669Z,101016.44
2022-08-23T19:17:08.038Z,100805.50
2022-08-23T19:19:35.699Z,101010.31
2022-08-23T19:22:03.501Z,100916.38
2022-08-23T19:24:30.545Z,101024.19
2022-08-23T19:26:57.228Z,100939.81
2022-08-23T19:29:23.841Z,101053.44
2022-08-23T19:31:50.694Z,101019.94
2022-08-23T19:34:19.552Z,101029.31
2022-08-23T19:36:56.745Z,101058.91
2022-08-23T19:39:27.725Z,101051.63
2022-08-23T19:41:54.377Z,101023.25
2022-08-23T19:44:21.450Z,100987.88
2022-08-23T19:46:48.392Z,101069.63
2022-08-23T19:49:15.437Z,101042.72
2022-08-23T19:51:43.732Z,101076.72
2022-08-23T19:54:12.594Z,101087.78
2022-08-23T19:56:46.814Z,101058.88
2022-08-23T19:59:20.315Z,101071.75
2022-08-23T20:01:49.236Z,101083.75
2022-08-23T20:04:17.281Z,101100.22
2022-08-23T20:06:44.003Z,101052.94
2022-08-23T20:09:11.364Z,101108.28
2022-08-23T20:11:39.046Z,101090.50
2022-08-23T20:14:05.965Z,101098.91
2022-08-23T20:16:33.221Z,101081.72
2022-08-23T20:19:01.118Z,101018.75
2022-08-23T20:21:28.459Z,101100.59
2022-08-23T20:24:02.053Z,101108.97
2022-08-23T20:26:30.124Z,101058.19
2022-08-23T20:29:00.193Z,101102.09
2022-08-23T20:31:31.944Z,101115.81
2022-08-23T20:33:59.417Z,101080.56
2022-08-23T20:36:28.209Z,101083.53
2022-08-23T20:38:59.983Z,101115.31
2022-08-23T20:41:33.614Z,101114.00
2022-08-23T20:44:00.991Z,101058.16
2022-08-23T20:46:28.057Z,101124.63
2022-08-23T20:48:57.930Z,101017.38
2022-08-23T20:51:26.033Z,101130.66
2022-08-23T20:53:52.880Z,101120.06
2022-08-23T20:56:20.510Z,101135.34
2022-08-23T20:58:47.334Z,101127.41
2022-08-23T21:01:15.959Z,101042.84
2022-08-23T21:03:43.006Z,101074.03
2022-08-23T21:06:16.175Z,101117.88
2022-08-23T21:08:48.699Z,101079.41
2022-08-23T21:11:15.523Z,101061.94
2022-08-23T21:13:44.174Z,101126.72
2022-08-23T21:16:15.852Z,101100.22
2022-08-23T21:18:42.952Z,100953.72
2022-08-23T21:21:09.930Z,101118.84
2022-08-23T21:23:37.406Z,101128.59
2022-08-23T21:26:05.714Z,101126.19
2022-08-23T21:28:32.608Z,101099.44
2022-08-23T21:31:08.010Z,101133.13
2022-08-23T21:33:39.796Z,101125.25
2022-08-23T21:36:08.953Z,101126.13
2022-08-23T21:38:36.307Z,101109.94
2022-08-23T21:41:05.717Z,101073.16
2022-08-23T21:43:33.850Z,101072.22
2022-08-23T21:46:00.532Z,101121.00
2022-08-23T21:48:27.175Z,101061.47
2022-08-23T21:50:54.171Z,101115.03
2022-08-23T21:53:20.859Z,101043.44
2022-08-23T21:55:47.525Z,101132.78
2022-08-23T21:58:14.284Z,101136.59
2022-08-23T22:00:42.226Z,101140.66
2022-08-23T22:03:09.389Z,101134.16
2022-08-23T22:05:54.365Z,101128.28
2022-08-23T22:08:21.051Z,101120.25
2022-08-23T22:10:56.781Z,101121.81
2022-08-23T22:13:24.796Z,101125.50
2022-08-23T22:15:53.473Z,101122.66
2022-08-23T22:18:21.857Z,101099.25
2022-08-23T22:20:48.509Z,101106.03
2022-08-23T22:23:15.223Z,101124.91
2022-08-23T22:25:41.805Z,101121.44
2022-08-23T22:28:08.602Z,101121.75
2022-08-23T22:30:35.490Z,101124.81
2022-08-23T22:33:03.351Z,101120.41
2022-08-23T22:35:34.348Z,101094.72
2022-08-23T22:38:13.643Z,101108.78
2022-08-23T22:40:47.592Z,101109.06
2022-08-23T22:43:14.282Z,101109.22
2022-08-23T22:45:56.176Z,101086.97
2022-08-23T22:48:24.421Z,101110.75
2022-08-23T22:50:51.219Z,101048.41
2022-08-23T22:53:19.357Z,101126.91
2022-08-23T22:55:50.681Z,101122.00
2022-08-23T22:58:17.228Z,101140.41
2022-08-23T23:00:43.929Z,101135.38
2022-08-23T23:03:10.713Z,101109.88
2022-08-23T23:05:37.670Z,101139.16
2022-08-23T23:08:23.383Z,101114.50
2022-08-23T23:10:50.133Z,101063.38
2022-08-23T23:13:16.794Z,101129.13
2022-08-23T23:15:43.559Z,101131.66
2022-08-23T23:18:10.195Z,101104.56
2022-08-23T23:20:38.000Z,101095.44
2022-08-23T23:23:18.495Z,101116.41
2022-08-23T23:25:46.190Z,101123.41
2022-08-23T23:28:14.440Z,101111.41
2022-08-23T23:30:43.440Z,101102.66
2022-08-23T23:33:10.360Z,101083.44
2022-08-23T23:35:37.681Z,101119.13
2022-08-23T23:38:05.520Z,101090.69
2022-08-23T23:40:33.617Z,101085.69
2022-08-23T23:43:00.503Z,101109.44
2022-08-23T23:45:27.968Z,101091.59
2022-08-23T23:47:54.921Z,101100.19
2022-08-23T23:50:22.384Z,100981.28
2022-08-23T23:52:49.050Z,101067.81
2022-08-23T23:55:17.949Z,101120.53
2022-08-23T23:57:44.672Z,101110.97
